sensor_id;sensor_type;location;lat;lon;timestamp;temperature;humidity
584;HTU21D;27024;54.068;12.116;2023-03-13T00:01:11;4.54;118.99
584;HTU21D;27024;54.068;12.116;2023-03-13T00:03:38;4.53;118.99
584;HTU21D;27024;54.068;12.116;2023-03-13T00:06:05;4.59;118.99
584;HTU21D;27024;54.068;12.116;2023-03-13T00:08:32;4.58;118.99
584;HTU21D;27024;54.068;12.116;2023-03-13T00:11:04;4.57;118.99
584;HTU21D;27024;54.068;12.116;2023-03-13T00:13:31;4.59;118.99
584;HTU21D;27024;54.068;12.116;2023-03-13T00:16:03;4.58;118.99
584;HTU21D;27024;54.068;12.116;2023-03-13T00:18:30;4.58;118.99
584;HTU21D;27024;54.068;12.116;2023-03-13T00:20:58;4.62;118.99
584;HTU21D;27024;54.068;12.116;2023-03-13T00:23:26;4.62;118.99
584;HTU21D;27024;54.068;12.116;2023-03-13T00:26:05;4.72;118.99
584;HTU21D;27024;54.068;12.116;2023-03-13T00:28:34;4.68;118.99
584;HTU21D;27024;54.068;12.116;2023-03-13T00:31:19;4.72;118.99
584;HTU21D;27024;54.068;12.116;2023-03-13T00:33:48;4.75;118.99
584;HTU21D;27024;54.068;12.116;2023-03-13T00:36:23;4.81;118.99
584;HTU21D;27024;54.068;12.116;2023-03-13T00:38:52;4.76;118.99
584;HTU21D;27024;54.068;12.116;2023-03-13T00:41:25;4.84;118.99
584;HTU21D;27024;54.068;12.116;2023-03-13T00:43:52;4.88;118.99
584;HTU21D;27024;54.068;12.116;2023-03-13T00:46:22;4.96;118.99
584;HTU21D;27024;54.068;12.116;2023-03-13T00:48:49;5.00;118.99
584;HTU21D;27024;54.068;12.116;2023-03-13T00:51:17;5.05;118.99
584;HTU21D;27024;54.068;12.116;2023-03-13T00:53:45;5.08;118.99
584;HTU21D;27024;54.068;12.116;2023-03-13T00:56:14;5.08;118.99
584;HTU21D;27024;54.068;12.116;2023-03-13T00:58:44;5.12;118.99
584;HTU21D;27024;54.068;12.116;2023-03-13T01:01:12;5.19;118.99
584;HTU21D;27024;54.068;12.116;2023-03-13T01:03:41;5.25;118.99
584;HTU21D;27024;54.068;12.116;2023-03-13T01:06:10;5.25;118.99
584;HTU21D;27024;54.068;12.116;2023-03-13T01:08:38;5.27;118.99
584;HTU21D;27024;54.068;12.116;2023-03-13T01:11:15;5.27;118.99
584;HTU21D;27024;54.068;12.116;2023-03-13T01:13:42;5.23;118.99
584;HTU21D;27024;54.068;12.116;2023-03-13T01:16:12;5.23;118.99
584;HTU21D;27024;54.068;12.116;2023-03-13T01:18:42;5.26;118.99
584;HTU21D;27024;54.068;12.116;2023-03-13T01:21:10;5.23;118.99
584;HTU21D;27024;54.068;12.116;2023-03-13T01:23:37;5.27;118.99
584;HTU21D;27024;54.068;12.116;2023-03-13T01:26:05;5.31;118.99
584;HTU21D;27024;54.068;12.116;2023-03-13T01:28:34;5.37;118.99
584;HTU21D;27024;54.068;12.116;2023-03-13T01:31:16;5.41;118.99
584;HTU21D;27024;54.068;12.116;2023-03-13T01:33:45;5.43;118.99
584;HTU21D;27024;54.068;12.116;2023-03-13T01:36:12;5.47;118.99
584;HTU21D;27024;54.068;12.116;2023-03-13T01:38:40;5.51;118.99
584;HTU21D;27024;54.068;12.116;2023-03-13T01:41:08;5.55;118.99
584;HTU21D;27024;54.068;12.116;2023-03-13T01:43:36;5.56;118.99
584;HTU21D;27024;54.068;12.116;2023-03-13T01:54:21;5.66;118.99
584;HTU21D;27024;54.068;12.116;2023-03-13T01:59:41;5.68;118.99
584;HTU21D;27024;54.068;12.116;2023-03-13T02:02:10;5.70;118.99
584;HTU21D;27024;54.068;12.116;2023-03-13T02:04:44;5.70;118.99
584;HTU21D;27024;54.068;12.116;2023-03-13T02:07:16;5.72;118.99
584;HTU21D;27024;54.068;12.116;2023-03-13T02:09:47;5.71;118.99
584;HTU21D;27024;54.068;12.116;2023-03-13T02:12:28;5.75;118.99
584;HTU21D;27024;54.068;12.116;2023-03-13T02:14:57;5.77;118.99
584;HTU21D;27024;54.068;12.116;2023-03-13T02:17:25;5.77;118.99
584;HTU21D;27024;54.068;12.116;2023-03-13T02:19:52;5.70;118.99
584;HTU21D;27024;54.068;12.116;2023-03-13T02:23:01;5.78;118.99
584;HTU21D;27024;54.068;12.116;2023-03-13T02:25:45;5.79;118.99
584;HTU21D;27024;54.068;12.116;2023-03-13T02:28:15;5.83;118.99
584;HTU21D;27024;54.068;12.116;2023-03-13T02:30:43;5.79;118.99
584;HTU21D;27024;54.068;12.116;2023-03-13T02:33:12;5.79;118.99
584;HTU21D;27024;54.068;12.116;2023-03-13T02:35:41;5.83;118.99
584;HTU21D;27024;54.068;12.116;2023-03-13T02:38:11;5.87;118.99
584;HTU21D;27024;54.068;12.116;2023-03-13T02:40:42;5.83;118.99
584;HTU21D;27024;54.068;12.116;2023-03-13T02:43:34;5.87;118.99
584;HTU21D;27024;54.068;12.116;2023-03-13T02:48:38;5.95;118.99
584;HTU21D;27024;54.068;12.116;2023-03-13T02:51:52;5.91;118.99
584;HTU21D;27024;54.068;12.116;2023-03-13T02:54:02;5.87;118.99
584;HTU21D;27024;54.068;12.116;2023-03-13T02:56:30;5.86;118.99
584;HTU21D;27024;54.068;12.116;2023-03-13T02:58:59;5.85;118.99
584;HTU21D;27024;54.068;12.116;2023-03-13T03:01:26;5.87;118.99
584;HTU21D;27024;54.068;12.116;2023-03-13T03:03:53;5.89;118.99
584;HTU21D;27024;54.068;12.116;2023-03-13T03:06:19;5.90;118.99
584;HTU21D;27024;54.068;12.116;2023-03-13T03:08:46;5.93;118.99
584;HTU21D;27024;54.068;12.116;2023-03-13T03:11:13;5.99;118.99
584;HTU21D;27024;54.068;12.116;2023-03-13T03:13:40;5.96;118.99
584;HTU21D;27024;54.068;12.116;2023-03-13T03:16:12;5.93;118.99
584;HTU21D;27024;54.068;12.116;2023-03-13T03:18:40;5.97;118.99
584;HTU21D;27024;54.068;12.116;2023-03-13T03:21:07;5.94;118.99
584;HTU21D;27024;54.068;12.116;2023-03-13T03:23:35;5.99;118.99
584;HTU21D;27024;54.068;12.116;2023-03-13T03:26:03;5.99;118.99
584;HTU21D;27024;54.068;12.116;2023-03-13T03:28:31;6.00;118.99
584;HTU21D;27024;54.068;12.116;2023-03-13T03:31:03;5.99;118.99
584;HTU21D;27024;54.068;12.116;2023-03-13T03:33:30;5.95;118.99
584;HTU21D;27024;54.068;12.116;2023-03-13T03:36:02;5.94;118.99
584;HTU21D;27024;54.068;12.116;2023-03-13T03:38:29;5.95;118.99
584;HTU21D;27024;54.068;12.116;2023-03-13T03:40:56;5.93;118.99
584;HTU21D;27024;54.068;12.116;2023-03-13T03:43:23;5.90;118.99
584;HTU21D;27024;54.068;12.116;2023-03-13T03:45:50;5.91;118.99
584;HTU21D;27024;54.068;12.116;2023-03-13T03:48:17;5.92;118.99
584;HTU21D;27024;54.068;12.116;2023-03-13T03:50:44;5.89;118.99
584;HTU21D;27024;54.068;12.116;2023-03-13T03:53:10;5.92;118.99
584;HTU21D;27024;54.068;12.116;2023-03-13T03:55:37;5.97;118.99
584;HTU21D;27024;54.068;12.116;2023-03-13T03:58:04;5.98;118.99
584;HTU21D;27024;54.068;12.116;2023-03-13T04:00:31;5.99;118.99
584;HTU21D;27024;54.068;12.116;2023-03-13T04:02:58;5.98;118.99
584;HTU21D;27024;54.068;12.116;2023-03-13T04:05:25;5.98;118.99
584;HTU21D;27024;54.068;12.116;2023-03-13T04:07:52;5.98;118.99
584;HTU21D;27024;54.068;12.116;2023-03-13T04:10:18;6.00;118.99
584;HTU21D;27024;54.068;12.116;2023-03-13T04:12:45;6.00;118.99
584;HTU21D;27024;54.068;12.116;2023-03-13T04:15:12;6.08;118.99
584;HTU21D;27024;54.068;12.116;2023-03-13T04:17:39;6.05;118.99
584;HTU21D;27024;54.068;12.116;2023-03-13T04:20:06;6.02;118.99
584;HTU21D;27024;54.068;12.116;2023-03-13T04:22:33;6.06;118.99
584;HTU21D;27024;54.068;12.116;2023-03-13T04:25:00;6.08;118.99
584;HTU21D;27024;54.068;12.116;2023-03-13T04:27:27;6.11;118.99
584;HTU21D;27024;54.068;12.116;2023-03-13T04:29:53;6.11;118.99
584;HTU21D;27024;54.068;12.116;2023-03-13T04:32:20;6.09;118.99
584;HTU21D;27024;54.068;12.116;2023-03-13T04:34:47;6.12;118.99
584;HTU21D;27024;54.068;12.116;2023-03-13T04:37:14;6.15;118.99
584;HTU21D;27024;54.068;12.116;2023-03-13T04:39:41;6.13;118.99
584;HTU21D;27024;54.068;12.116;2023-03-13T04:42:09;6.15;118.99
584;HTU21D;27024;54.068;12.116;2023-03-13T04:44:36;6.14;118.99
584;HTU21D;27024;54.068;12.116;2023-03-13T04:47:04;6.16;118.99
584;HTU21D;27024;54.068;12.116;2023-03-13T04:49:31;6.17;118.99
584;HTU21D;27024;54.068;12.116;2023-03-13T04:51:57;6.15;118.99
584;HTU21D;27024;54.068;12.116;2023-03-13T04:54:24;6.17;118.99
584;HTU21D;27024;54.068;12.116;2023-03-13T04:56:51;6.19;118.99
584;HTU21D;27024;54.068;12.116;2023-03-13T04:59:18;6.19;118.99
584;HTU21D;27024;54.068;12.116;2023-03-13T05:01:44;6.22;118.99
584;HTU21D;27024;54.068;12.116;2023-03-13T05:04:11;6.23;118.99
584;HTU21D;27024;54.068;12.116;2023-03-13T05:06:39;6.25;118.99
584;HTU21D;27024;54.068;12.116;2023-03-13T05:09:05;6.24;118.99
584;HTU21D;27024;54.068;12.116;2023-03-13T05:11:32;6.24;118.99
584;HTU21D;27024;54.068;12.116;2023-03-13T05:13:59;6.23;118.99
584;HTU21D;27024;54.068;12.116;2023-03-13T05:16:26;6.25;118.99
584;HTU21D;27024;54.068;12.116;2023-03-13T05:18:53;6.22;118.99
584;HTU21D;27024;54.068;12.116;2023-03-13T05:21:20;6.29;118.99
584;HTU21D;27024;54.068;12.116;2023-03-13T05:23:47;6.26;118.99
584;HTU21D;27024;54.068;12.116;2023-03-13T05:26:13;6.38;118.99
584;HTU21D;27024;54.068;12.116;2023-03-13T05:28:40;6.33;118.99
584;HTU21D;27024;54.068;12.116;2023-03-13T05:31:07;6.36;118.99
584;HTU21D;27024;54.068;12.116;2023-03-13T05:33:34;6.36;118.99
584;HTU21D;27024;54.068;12.116;2023-03-13T05:36:01;6.37;118.99
584;HTU21D;27024;54.068;12.116;2023-03-13T05:38:28;6.37;118.99
584;HTU21D;27024;54.068;12.116;2023-03-13T05:40:54;6.36;118.99
584;HTU21D;27024;54.068;12.116;2023-03-13T05:43:21;6.34;118.99
584;HTU21D;27024;54.068;12.116;2023-03-13T05:45:48;6.33;118.99
584;HTU21D;27024;54.068;12.116;2023-03-13T05:48:15;6.33;118.99
584;HTU21D;27024;54.068;12.116;2023-03-13T05:50:42;6.34;118.99
584;HTU21D;27024;54.068;12.116;2023-03-13T05:53:09;6.34;118.99
584;HTU21D;27024;54.068;12.116;2023-03-13T05:55:36;6.30;118.99
584;HTU21D;27024;54.068;12.116;2023-03-13T05:58:03;6.29;118.99
584;HTU21D;27024;54.068;12.116;2023-03-13T06:00:30;6.27;118.99
584;HTU21D;27024;54.068;12.116;2023-03-13T06:02:56;6.29;118.99
584;HTU21D;27024;54.068;12.116;2023-03-13T06:05:23;6.28;118.99
584;HTU21D;27024;54.068;12.116;2023-03-13T06:07:50;6.29;118.99
584;HTU21D;27024;54.068;12.116;2023-03-13T06:10:17;6.29;118.99
584;HTU21D;27024;54.068;12.116;2023-03-13T06:12:44;6.31;118.99
584;HTU21D;27024;54.068;12.116;2023-03-13T06:15:17;6.31;118.99
584;HTU21D;27024;54.068;12.116;2023-03-13T06:17:44;6.33;118.99
584;HTU21D;27024;54.068;12.116;2023-03-13T06:20:11;6.33;118.99
584;HTU21D;27024;54.068;12.116;2023-03-13T06:22:38;6.34;118.99
584;HTU21D;27024;54.068;12.116;2023-03-13T06:25:06;6.36;118.99
584;HTU21D;27024;54.068;12.116;2023-03-13T06:27:33;6.37;118.99
584;HTU21D;27024;54.068;12.116;2023-03-13T06:30:01;6.38;118.99
584;HTU21D;27024;54.068;12.116;2023-03-13T06:32:28;6.39;118.99
584;HTU21D;27024;54.068;12.116;2023-03-13T06:34:55;6.44;118.99
584;HTU21D;27024;54.068;12.116;2023-03-13T06:37:22;6.45;118.99
584;HTU21D;27024;54.068;12.116;2023-03-13T06:39:49;6.46;118.99
584;HTU21D;27024;54.068;12.116;2023-03-13T06:42:16;6.48;118.99
584;HTU21D;27024;54.068;12.116;2023-03-13T06:44:43;6.50;118.99
584;HTU21D;27024;54.068;12.116;2023-03-13T06:47:10;6.53;118.99
584;HTU21D;27024;54.068;12.116;2023-03-13T06:49:40;6.53;118.99
584;HTU21D;27024;54.068;12.116;2023-03-13T06:52:07;6.56;118.99
584;HTU21D;27024;54.068;12.116;2023-03-13T06:54:34;6.58;118.99
584;HTU21D;27024;54.068;12.116;2023-03-13T06:57:01;6.59;118.99
584;HTU21D;27024;54.068;12.116;2023-03-13T06:59:28;6.60;118.99
584;HTU21D;27024;54.068;12.116;2023-03-13T07:01:54;6.65;118.99
584;HTU21D;27024;54.068;12.116;2023-03-13T07:04:21;6.65;118.99
584;HTU21D;27024;54.068;12.116;2023-03-13T07:06:50;6.66;118.99
584;HTU21D;27024;54.068;12.116;2023-03-13T07:09:16;6.70;118.99
584;HTU21D;27024;54.068;12.116;2023-03-13T07:11:45;6.69;118.99
584;HTU21D;27024;54.068;12.116;2023-03-13T07:14:13;6.72;118.99
584;HTU21D;27024;54.068;12.116;2023-03-13T07:16:44;6.72;118.99
584;HTU21D;27024;54.068;12.116;2023-03-13T07:19:11;6.74;118.99
584;HTU21D;27024;54.068;12.116;2023-03-13T07:21:38;6.78;118.99
584;HTU21D;27024;54.068;12.116;2023-03-13T07:24:05;6.83;118.99
584;HTU21D;27024;54.068;12.116;2023-03-13T07:26:32;6.81;118.99
584;HTU21D;27024;54.068;12.116;2023-03-13T07:28:59;6.84;118.99
584;HTU21D;27024;54.068;12.116;2023-03-13T07:31:27;6.85;118.99
584;HTU21D;27024;54.068;12.116;2023-03-13T07:33:55;6.87;118.99
584;HTU21D;27024;54.068;12.116;2023-03-13T07:36:22;6.91;118.99
584;HTU21D;27024;54.068;12.116;2023-03-13T07:38:50;6.93;118.99
584;HTU21D;27024;54.068;12.116;2023-03-13T07:41:19;6.91;118.99
584;HTU21D;27024;54.068;12.116;2023-03-13T07:43:46;6.94;118.99
584;HTU21D;27024;54.068;12.116;2023-03-13T07:46:15;6.94;118.99
584;HTU21D;27024;54.068;12.116;2023-03-13T07:48:44;6.95;118.99
584;HTU21D;27024;54.068;12.116;2023-03-13T07:51:17;6.99;118.99
584;HTU21D;27024;54.068;12.116;2023-03-13T07:53:48;7.04;118.99
584;HTU21D;27024;54.068;12.116;2023-03-13T07:56:18;7.05;118.99
584;HTU21D;27024;54.068;12.116;2023-03-13T07:58:45;7.12;118.99
584;HTU21D;27024;54.068;12.116;2023-03-13T08:01:24;7.14;118.99
584;HTU21D;27024;54.068;12.116;2023-03-13T08:03:56;7.17;118.99
584;HTU21D;27024;54.068;12.116;2023-03-13T08:06:25;7.23;118.99
584;HTU21D;27024;54.068;12.116;2023-03-13T08:08:55;7.25;118.99
584;HTU21D;27024;54.068;12.116;2023-03-13T08:11:23;7.31;118.99
584;HTU21D;27024;54.068;12.116;2023-03-13T08:13:51;7.39;118.99
584;HTU21D;27024;54.068;12.116;2023-03-13T08:16:20;7.44;118.99
584;HTU21D;27024;54.068;12.116;2023-03-13T08:18:49;7.55;118.99
584;HTU21D;27024;54.068;12.116;2023-03-13T08:21:27;7.63;118.99
584;HTU21D;27024;54.068;12.116;2023-03-13T08:23:55;7.70;118.99
584;HTU21D;27024;54.068;12.116;2023-03-13T08:26:27;7.73;118.99
584;HTU21D;27024;54.068;12.116;2023-03-13T08:28:56;7.78;118.99
584;HTU21D;27024;54.068;12.116;2023-03-13T08:31:29;7.83;118.99
584;HTU21D;27024;54.068;12.116;2023-03-13T08:33:56;7.86;118.99
584;HTU21D;27024;54.068;12.116;2023-03-13T08:36:26;7.90;118.99
584;HTU21D;27024;54.068;12.116;2023-03-13T08:38:57;7.91;118.99
584;HTU21D;27024;54.068;12.116;2023-03-13T08:41:27;7.96;118.99
584;HTU21D;27024;54.068;12.116;2023-03-13T08:43:55;7.98;118.99
584;HTU21D;27024;54.068;12.116;2023-03-13T08:46:23;8.26;118.99
584;HTU21D;27024;54.068;12.116;2023-03-13T08:48:52;8.27;118.99
584;HTU21D;27024;54.068;12.116;2023-03-13T08:51:22;8.15;118.99
584;HTU21D;27024;54.068;12.116;2023-03-13T08:53:49;8.23;118.99
584;HTU21D;27024;54.068;12.116;2023-03-13T08:56:19;8.28;118.99
584;HTU21D;27024;54.068;12.116;2023-03-13T08:58:50;8.22;118.99
584;HTU21D;27024;54.068;12.116;2023-03-13T09:01:18;8.16;118.99
584;HTU21D;27024;54.068;12.116;2023-03-13T09:03:45;8.23;118.99
584;HTU21D;27024;54.068;12.116;2023-03-13T09:06:13;8.23;118.99
584;HTU21D;27024;54.068;12.116;2023-03-13T09:08:40;8.24;118.99
584;HTU21D;27024;54.068;12.116;2023-03-13T09:11:09;8.24;118.99
584;HTU21D;27024;54.068;12.116;2023-03-13T09:13:39;8.29;118.99
584;HTU21D;27024;54.068;12.116;2023-03-13T09:16:11;8.28;118.99
584;HTU21D;27024;54.068;12.116;2023-03-13T09:18:39;8.28;118.99
584;HTU21D;27024;54.068;12.116;2023-03-13T09:21:08;8.32;118.99
584;HTU21D;27024;54.068;12.116;2023-03-13T09:23:35;8.33;118.99
584;HTU21D;27024;54.068;12.116;2023-03-13T09:26:03;8.34;118.99
584;HTU21D;27024;54.068;12.116;2023-03-13T09:28:30;8.37;118.99
584;HTU21D;27024;54.068;12.116;2023-03-13T09:31:06;8.42;118.99
584;HTU21D;27024;54.068;12.116;2023-03-13T09:33:33;8.43;118.99
584;HTU21D;27024;54.068;12.116;2023-03-13T09:36:00;8.47;118.99
584;HTU21D;27024;54.068;12.116;2023-03-13T09:38:27;8.56;118.99
584;HTU21D;27024;54.068;12.116;2023-03-13T09:40:54;8.60;118.99
584;HTU21D;27024;54.068;12.116;2023-03-13T09:43:37;8.66;118.99
584;HTU21D;27024;54.068;12.116;2023-03-13T09:46:15;8.72;118.99
584;HTU21D;27024;54.068;12.116;2023-03-13T09:48:52;8.75;118.99
584;HTU21D;27024;54.068;12.116;2023-03-13T09:51:27;8.85;118.99
584;HTU21D;27024;54.068;12.116;2023-03-13T09:54:12;8.85;118.99
584;HTU21D;27024;54.068;12.116;2023-03-13T09:56:49;8.90;118.99
584;HTU21D;27024;54.068;12.116;2023-03-13T10:02:28;8.90;118.99
584;HTU21D;27024;54.068;12.116;2023-03-13T10:07:48;9.10;118.99
584;HTU21D;27024;54.068;12.116;2023-03-13T10:10:22;9.22;118.99
584;HTU21D;27024;54.068;12.116;2023-03-13T10:12:56;9.22;118.99
584;HTU21D;27024;54.068;12.116;2023-03-13T10:15:29;9.33;118.99
584;HTU21D;27024;54.068;12.116;2023-03-13T10:17:59;9.34;118.99
584;HTU21D;27024;54.068;12.116;2023-03-13T10:20:34;9.37;118.99
584;HTU21D;27024;54.068;12.116;2023-03-13T10:23:15;9.48;118.99
584;HTU21D;27024;54.068;12.116;2023-03-13T10:25:44;9.61;118.99
584;HTU21D;27024;54.068;12.116;2023-03-13T10:28:16;9.70;118.99
584;HTU21D;27024;54.068;12.116;2023-03-13T10:30:48;9.71;118.99
584;HTU21D;27024;54.068;12.116;2023-03-13T10:33:22;9.72;118.99
584;HTU21D;27024;54.068;12.116;2023-03-13T10:36:21;9.84;118.99
584;HTU21D;27024;54.068;12.116;2023-03-13T10:38:51;9.88;118.99
584;HTU21D;27024;54.068;12.116;2023-03-13T10:41:27;9.88;118.99
584;HTU21D;27024;54.068;12.116;2023-03-13T10:44:03;9.94;118.99
584;HTU21D;27024;54.068;12.116;2023-03-13T10:46:33;9.95;118.99
584;HTU21D;27024;54.068;12.116;2023-03-13T10:49:02;10.05;118.99
584;HTU21D;27024;54.068;12.116;2023-03-13T10:51:38;10.03;118.99
584;HTU21D;27024;54.068;12.116;2023-03-13T10:54:21;10.04;118.99
584;HTU21D;27024;54.068;12.116;2023-03-13T10:56:49;10.08;118.99
584;HTU21D;27024;54.068;12.116;2023-03-13T10:59:25;10.11;118.99
584;HTU21D;27024;54.068;12.116;2023-03-13T11:01:58;10.16;118.99
584;HTU21D;27024;54.068;12.116;2023-03-13T11:04:30;10.24;118.99
584;HTU21D;27024;54.068;12.116;2023-03-13T11:07:04;10.29;118.99
584;HTU21D;27024;54.068;12.116;2023-03-13T11:09:31;10.30;118.99
584;HTU21D;27024;54.068;12.116;2023-03-13T11:12:11;10.34;118.99
584;HTU21D;27024;54.068;12.116;2023-03-13T11:14:39;10.38;118.99
584;HTU21D;27024;54.068;12.116;2023-03-13T11:17:23;10.42;118.99
584;HTU21D;27024;54.068;12.116;2023-03-13T11:20:23;10.46;118.99
584;HTU21D;27024;54.068;12.116;2023-03-13T11:26:07;10.60;118.99
584;HTU21D;27024;54.068;12.116;2023-03-13T11:31:09;10.78;118.99
584;HTU21D;27024;54.068;12.116;2023-03-13T11:36:34;10.97;118.99
584;HTU21D;27024;54.068;12.116;2023-03-13T11:44:30;11.42;118.99
584;HTU21D;27024;54.068;12.116;2023-03-13T11:52:57;11.69;118.99
584;HTU21D;27024;54.068;12.116;2023-03-13T11:56:07;11.81;118.99
584;HTU21D;27024;54.068;12.116;2023-03-13T12:01:16;12.41;118.99
584;HTU21D;27024;54.068;12.116;2023-03-13T12:04:17;13.44;117.18
584;HTU21D;27024;54.068;12.116;2023-03-13T12:06:51;13.44;115.24
584;HTU21D;27024;54.068;12.116;2023-03-13T12:09:26;13.77;113.09
584;HTU21D;27024;54.068;12.116;2023-03-13T12:25:46;14.83;106.28
584;HTU21D;27024;54.068;12.116;2023-03-13T12:30:58;14.56;107.49
584;HTU21D;27024;54.068;12.116;2023-03-13T12:33:34;14.80;106.72
584;HTU21D;27024;54.068;12.116;2023-03-13T12:36:10;14.80;105.59
584;HTU21D;27024;54.068;12.116;2023-03-13T12:38:43;15.07;104.98
584;HTU21D;27024;54.068;12.116;2023-03-13T12:43:48;15.63;101.43
584;HTU21D;27024;54.068;12.116;2023-03-13T12:47:15;15.46;103.24
584;HTU21D;27024;54.068;12.116;2023-03-13T12:49:58;15.66;101.73
584;HTU21D;27024;54.068;12.116;2023-03-13T12:55:48;15.62;100.61
584;HTU21D;27024;54.068;12.116;2023-03-13T13:01:10;15.54;99.69
584;HTU21D;27024;54.068;12.116;2023-03-13T13:03:49;15.18;101.18
584;HTU21D;27024;54.068;12.116;2023-03-13T13:06:17;15.11;100.24
584;HTU21D;27024;54.068;12.116;2023-03-13T13:14:00;14.98;99.38
584;HTU21D;27024;54.068;12.116;2023-03-13T13:16:28;15.11;100.33
584;HTU21D;27024;54.068;12.116;2023-03-13T13:24:58;15.85;97.25
584;HTU21D;27024;54.068;12.116;2023-03-13T13:27:47;15.85;95.57
584;HTU21D;27024;54.068;12.116;2023-03-13T13:32:46;16.44;93.25
584;HTU21D;27024;54.068;12.116;2023-03-13T13:35:33;16.13;95.28
584;HTU21D;27024;54.068;12.116;2023-03-13T13:43:37;15.49;96.99
584;HTU21D;27024;54.068;12.116;2023-03-13T13:48:44;15.31;96.50
584;HTU21D;27024;54.068;12.116;2023-03-13T13:53:47;15.65;96.07
584;HTU21D;27024;54.068;12.116;2023-03-13T13:59:05;15.97;93.46
584;HTU21D;27024;54.068;12.116;2023-03-13T14:01:39;16.37;91.26
584;HTU21D;27024;54.068;12.116;2023-03-13T14:04:15;17.16;87.81
584;HTU21D;27024;54.068;12.116;2023-03-13T14:06:47;17.49;85.22
584;HTU21D;27024;54.068;12.116;2023-03-13T14:09:33;17.41;84.83
584;HTU21D;27024;54.068;12.116;2023-03-13T14:12:26;17.17;85.19
584;HTU21D;27024;54.068;12.116;2023-03-13T14:17:46;17.03;84.83
584;HTU21D;27024;54.068;12.116;2023-03-13T14:20:35;16.92;87.47
584;HTU21D;27024;54.068;12.116;2023-03-13T14:23:10;16.69;86.48
584;HTU21D;27024;54.068;12.116;2023-03-13T14:25:48;16.21;88.58
584;HTU21D;27024;54.068;12.116;2023-03-13T14:28:26;16.52;86.41
584;HTU21D;27024;54.068;12.116;2023-03-13T14:30:55;16.25;88.28
584;HTU21D;27024;54.068;12.116;2023-03-13T14:33:24;16.12;90.05
584;HTU21D;27024;54.068;12.116;2023-03-13T14:35:54;16.40;89.18
584;HTU21D;27024;54.068;12.116;2023-03-13T14:38:25;17.21;84.99
584;HTU21D;27024;54.068;12.116;2023-03-13T14:40:53;17.05;84.58
584;HTU21D;27024;54.068;12.116;2023-03-13T14:45:54;17.70;77.96
584;HTU21D;27024;54.068;12.116;2023-03-13T14:48:31;18.11;70.64
584;HTU21D;27024;54.068;12.116;2023-03-13T14:51:23;17.92;71.72
584;HTU21D;27024;54.068;12.116;2023-03-13T14:54:01;18.18;68.87
584;HTU21D;27024;54.068;12.116;2023-03-13T14:56:34;18.14;68.47
584;HTU21D;27024;54.068;12.116;2023-03-13T14:59:15;17.78;67.89
584;HTU21D;27024;54.068;12.116;2023-03-13T15:01:42;17.81;68.81
584;HTU21D;27024;54.068;12.116;2023-03-13T15:04:09;17.26;72.13
584;HTU21D;27024;54.068;12.116;2023-03-13T15:06:36;17.21;74.04
584;HTU21D;27024;54.068;12.116;2023-03-13T15:11:58;16.60;80.02
584;HTU21D;27024;54.068;12.116;2023-03-13T15:14:46;16.51;82.10
584;HTU21D;27024;54.068;12.116;2023-03-13T15:17:26;16.32;84.47
584;HTU21D;27024;54.068;12.116;2023-03-13T15:19:55;16.27;85.99
584;HTU21D;27024;54.068;12.116;2023-03-13T15:22:36;15.95;87.00
584;HTU21D;27024;54.068;12.116;2023-03-13T15:25:12;15.73;86.62
584;HTU21D;27024;54.068;12.116;2023-03-13T15:27:40;15.82;85.38
584;HTU21D;27024;54.068;12.116;2023-03-13T15:30:07;15.77;84.92
584;HTU21D;27024;54.068;12.116;2023-03-13T15:32:37;15.78;84.11
584;HTU21D;27024;54.068;12.116;2023-03-13T15:35:27;15.70;82.87
584;HTU21D;27024;54.068;12.116;2023-03-13T15:37:55;15.68;81.23
584;HTU21D;27024;54.068;12.116;2023-03-13T15:40:23;15.60;80.78
584;HTU21D;27024;54.068;12.116;2023-03-13T15:42:51;15.58;79.92
584;HTU21D;27024;54.068;12.116;2023-03-13T15:45:18;15.60;79.60
584;HTU21D;27024;54.068;12.116;2023-03-13T15:47:46;15.65;77.40
584;HTU21D;27024;54.068;12.116;2023-03-13T15:50:17;15.61;77.73
584;HTU21D;27024;54.068;12.116;2023-03-13T15:52:44;15.52;78.11
584;HTU21D;27024;54.068;12.116;2023-03-13T15:55:11;15.46;78.43
584;HTU21D;27024;54.068;12.116;2023-03-13T15:57:44;15.37;79.80
584;HTU21D;27024;54.068;12.116;2023-03-13T16:00:23;15.28;80.83
584;HTU21D;27024;54.068;12.116;2023-03-13T16:02:50;15.21;82.27
584;HTU21D;27024;54.068;12.116;2023-03-13T16:05:17;15.16;83.09
584;HTU21D;27024;54.068;12.116;2023-03-13T16:07:44;15.14;83.84
584;HTU21D;27024;54.068;12.116;2023-03-13T16:10:19;15.09;84.10
584;HTU21D;27024;54.068;12.116;2023-03-13T16:12:51;15.04;84.72
584;HTU21D;27024;54.068;12.116;2023-03-13T16:15:17;14.99;85.39
584;HTU21D;27024;54.068;12.116;2023-03-13T16:17:44;15.06;84.61
584;HTU21D;27024;54.068;12.116;2023-03-13T16:20:13;14.97;85.29
584;HTU21D;27024;54.068;12.116;2023-03-13T16:22:42;14.93;85.56
584;HTU21D;27024;54.068;12.116;2023-03-13T16:25:12;14.88;85.40
584;HTU21D;27024;54.068;12.116;2023-03-13T16:27:39;14.89;85.16
584;HTU21D;27024;54.068;12.116;2023-03-13T16:30:26;14.79;86.07
584;HTU21D;27024;54.068;12.116;2023-03-13T16:32:53;14.71;86.61
584;HTU21D;27024;54.068;12.116;2023-03-13T16:35:21;14.73;86.68
584;HTU21D;27024;54.068;12.116;2023-03-13T16:37:48;14.64;87.41
584;HTU21D;27024;54.068;12.116;2023-03-13T16:40:22;14.64;87.50
584;HTU21D;27024;54.068;12.116;2023-03-13T16:42:49;14.56;88.52
584;HTU21D;27024;54.068;12.116;2023-03-13T16:45:16;14.50;89.37
584;HTU21D;27024;54.068;12.116;2023-03-13T16:47:44;14.47;89.47
584;HTU21D;27024;54.068;12.116;2023-03-13T16:52:50;14.43;89.72
584;HTU21D;27024;54.068;12.116;2023-03-13T16:55:18;14.40;89.66
584;HTU21D;27024;54.068;12.116;2023-03-13T16:57:45;14.48;88.86
584;HTU21D;27024;54.068;12.116;2023-03-13T17:00:18;14.54;87.83
584;HTU21D;27024;54.068;12.116;2023-03-13T17:02:45;14.54;87.93
584;HTU21D;27024;54.068;12.116;2023-03-13T17:05:12;14.47;88.42
584;HTU21D;27024;54.068;12.116;2023-03-13T17:07:47;14.49;88.54
584;HTU21D;27024;54.068;12.116;2023-03-13T17:10:26;14.41;88.80
584;HTU21D;27024;54.068;12.116;2023-03-13T17:12:53;14.42;87.89
584;HTU21D;27024;54.068;12.116;2023-03-13T17:15:21;14.48;87.63
584;HTU21D;27024;54.068;12.116;2023-03-13T17:17:49;14.41;88.03
584;HTU21D;27024;54.068;12.116;2023-03-13T17:20:20;14.42;87.83
584;HTU21D;27024;54.068;12.116;2023-03-13T17:22:48;14.38;87.96
584;HTU21D;27024;54.068;12.116;2023-03-13T17:25:15;14.44;87.70
584;HTU21D;27024;54.068;12.116;2023-03-13T17:27:42;14.50;86.69
584;HTU21D;27024;54.068;12.116;2023-03-13T17:32:49;14.48;86.89
584;HTU21D;27024;54.068;12.116;2023-03-13T17:35:18;14.50;86.32
584;HTU21D;27024;54.068;12.116;2023-03-13T17:37:47;14.54;85.94
584;HTU21D;27024;54.068;12.116;2023-03-13T17:40:20;14.42;86.97